sensor_id;sensor_type;location;lat;lon;timestamp;P1;durP1;ratioP1;P2;durP2;ratioP2
72645;SDS011;60687;53.876;10.674;2023-03-31T00:09:38;10.45;;;2.22;;
72645;SDS011;60687;53.876;10.674;2023-03-31T00:19:41;8.17;;;1.80;;
72645;SDS011;60687;53.876;10.674;2023-03-31T00:29:45;10.57;;;2.50;;
72645;SDS011;60687;53.876;10.674;2023-03-31T00:39:49;10.68;;;2.75;;
72645;SDS011;60687;53.876;10.674;2023-03-31T00:49:54;9.40;;;2.85;;
72645;SDS011;60687;53.876;10.674;2023-03-31T00:59:59;9.13;;;2.40;;
72645;SDS011;60687;53.876;10.674;2023-03-31T01:10:07;10.70;;;2.60;;
72645;SDS011;60687;53.876;10.674;2023-03-31T01:20:13;10.45;;;3.30;;
72645;SDS011;60687;53.876;10.674;2023-03-31T01:30:43;10.17;;;3.30;;
72645;SDS011;60687;53.876;10.674;2023-03-31T01:51:49;11.68;;;3.20;;
72645;SDS011;60687;53.876;10.674;2023-03-31T02:01:58;14.47;;;3.37;;
72645;SDS011;60687;53.876;10.674;2023-03-31T02:12:06;11.27;;;3.20;;
72645;SDS011;60687;53.876;10.674;2023-03-31T02:22:11;13.85;;;3.15;;
72645;SDS011;60687;53.876;10.674;2023-03-31T02:32:19;13.83;;;2.77;;
72645;SDS011;60687;53.876;10.674;2023-03-31T02:42:26;9.87;;;2.27;;
72645;SDS011;60687;53.876;10.674;2023-03-31T02:52:39;10.65;;;2.03;;
72645;SDS011;60687;53.876;10.674;2023-03-31T03:02:59;13.93;;;3.10;;
72645;SDS011;60687;53.876;10.674;2023-03-31T03:13:16;15.73;;;3.90;;
72645;SDS011;60687;53.876;10.674;2023-03-31T03:23:24;14.57;;;3.80;;
72645;SDS011;60687;53.876;10.674;2023-03-31T03:33:27;11.45;;;3.17;;
72645;SDS011;60687;53.876;10.674;2023-03-31T03:43:32;9.67;;;3.30;;
72645;SDS011;60687;53.876;10.674;2023-03-31T03:53:36;10.93;;;3.73;;
72645;SDS011;60687;53.876;10.674;2023-03-31T04:03:39;10.27;;;3.30;;
72645;SDS011;60687;53.876;10.674;2023-03-31T04:13:43;12.87;;;3.93;;
72645;SDS011;60687;53.876;10.674;2023-03-31T04:23:48;12.27;;;2.87;;
72645;SDS011;60687;53.876;10.674;2023-03-31T04:33:59;8.23;;;2.90;;
72645;SDS011;60687;53.876;10.674;2023-03-31T04:44:01;9.90;;;2.83;;
72645;SDS011;60687;53.876;10.674;2023-03-31T04:54:06;9.70;;;3.30;;
72645;SDS011;60687;53.876;10.674;2023-03-31T05:04:09;9.48;;;4.07;;
72645;SDS011;60687;53.876;10.674;2023-03-31T05:14:15;8.40;;;3.38;;
72645;SDS011;60687;53.876;10.674;2023-03-31T05:24:19;9.77;;;4.10;;
72645;SDS011;60687;53.876;10.674;2023-03-31T05:34:23;10.73;;;3.90;;
72645;SDS011;60687;53.876;10.674;2023-03-31T05:44:26;10.05;;;3.42;;
72645;SDS011;60687;53.876;10.674;2023-03-31T05:54:31;12.67;;;4.50;;
72645;SDS011;60687;53.876;10.674;2023-03-31T06:04:34;12.57;;;4.60;;
72645;SDS011;60687;53.876;10.674;2023-03-31T06:14:37;12.50;;;4.85;;
72645;SDS011;60687;53.876;10.674;2023-03-31T06:24:40;15.70;;;4.70;;
72645;SDS011;60687;53.876;10.674;2023-03-31T06:34:44;11.93;;;4.00;;
72645;SDS011;60687;53.876;10.674;2023-03-31T06:44:47;12.43;;;4.50;;
72645;SDS011;60687;53.876;10.674;2023-03-31T06:54:51;9.73;;;4.25;;
72645;SDS011;60687;53.876;10.674;2023-03-31T07:04:54;12.80;;;4.63;;
72645;SDS011;60687;53.876;10.674;2023-03-31T07:14:58;13.47;;;4.73;;
72645;SDS011;60687;53.876;10.674;2023-03-31T07:25:01;12.70;;;4.60;;
72645;SDS011;60687;53.876;10.674;2023-03-31T07:35:06;12.37;;;4.70;;
72645;SDS011;60687;53.876;10.674;2023-03-31T07:45:15;11.03;;;4.33;;
72645;SDS011;60687;53.876;10.674;2023-03-31T07:55:20;13.55;;;4.63;;
72645;SDS011;60687;53.876;10.674;2023-03-31T08:05:25;12.30;;;4.50;;
72645;SDS011;60687;53.876;10.674;2023-03-31T08:15:39;10.53;;;4.23;;
72645;SDS011;60687;53.876;10.674;2023-03-31T08:25:42;13.00;;;4.53;;
72645;SDS011;60687;53.876;10.674;2023-03-31T08:35:49;13.40;;;4.25;;
72645;SDS011;60687;53.876;10.674;2023-03-31T08:45:55;12.10;;;4.40;;
72645;SDS011;60687;53.876;10.674;2023-03-31T08:55:59;10.70;;;4.20;;
72645;SDS011;60687;53.876;10.674;2023-03-31T09:06:06;10.32;;;4.22;;
72645;SDS011;60687;53.876;10.674;2023-03-31T09:16:14;11.07;;;4.53;;
72645;SDS011;60687;53.876;10.674;2023-03-31T09:26:21;11.03;;;4.43;;
72645;SDS011;60687;53.876;10.674;2023-03-31T09:36:29;11.88;;;5.28;;
72645;SDS011;60687;53.876;10.674;2023-03-31T09:46:34;8.60;;;3.73;;
72645;SDS011;60687;53.876;10.674;2023-03-31T10:06:59;7.45;;;3.10;;
72645;SDS011;60687;53.876;10.674;2023-03-31T10:17:04;9.10;;;3.25;;
72645;SDS011;60687;53.876;10.674;2023-03-31T10:27:12;7.07;;;2.77;;
72645;SDS011;60687;53.876;10.674;2023-03-31T10:37:23;7.53;;;2.50;;
72645;SDS011;60687;53.876;10.674;2023-03-31T10:47:32;8.13;;;2.20;;
72645;SDS011;60687;53.876;10.674;2023-03-31T10:57:38;9.10;;;2.43;;
72645;SDS011;60687;53.876;10.674;2023-03-31T11:07:57;6.70;;;2.50;;
72645;SDS011;60687;53.876;10.674;2023-03-31T11:28:56;7.83;;;2.03;;
72645;SDS011;60687;53.876;10.674;2023-03-31T11:39:11;7.30;;;2.50;;
72645;SDS011;60687;53.876;10.674;2023-03-31T11:49:27;6.80;;;2.35;;
72645;SDS011;60687;53.876;10.674;2023-03-31T11:59:43;6.78;;;2.20;;
72645;SDS011;60687;53.876;10.674;2023-03-31T12:09:54;5.83;;;1.83;;
72645;SDS011;60687;53.876;10.674;2023-03-31T12:20:11;6.10;;;1.97;;
72645;SDS011;60687;53.876;10.674;2023-03-31T12:30:19;5.22;;;1.42;;
72645;SDS011;60687;53.876;10.674;2023-03-31T12:40:36;5.33;;;1.80;;
72645;SDS011;60687;53.876;10.674;2023-03-31T12:51:06;5.33;;;1.47;;
72645;SDS011;60687;53.876;10.674;2023-03-31T13:01:24;5.32;;;1.70;;
72645;SDS011;60687;53.876;10.674;2023-03-31T13:11:35;5.37;;;1.70;;
72645;SDS011;60687;53.876;10.674;2023-03-31T13:21:54;7.07;;;1.93;;
72645;SDS011;60687;53.876;10.674;2023-03-31T13:32:05;6.10;;;1.63;;
72645;SDS011;60687;53.876;10.674;2023-03-31T13:42:20;4.82;;;1.30;;
72645;SDS011;60687;53.876;10.674;2023-03-31T13:52:52;5.10;;;1.50;;
72645;SDS011;60687;53.876;10.674;2023-03-31T14:13:35;3.33;;;1.00;;
72645;SDS011;60687;53.876;10.674;2023-03-31T14:23:43;4.60;;;1.30;;
72645;SDS011;60687;53.876;10.674;2023-03-31T14:33:58;4.57;;;1.30;;
72645;SDS011;60687;53.876;10.674;2023-03-31T14:44:16;4.35;;;1.27;;
72645;SDS011;60687;53.876;10.674;2023-03-31T14:54:19;5.20;;;1.50;;
72645;SDS011;60687;53.876;10.674;2023-03-31T15:04:27;4.40;;;1.63;;
72645;SDS011;60687;53.876;10.674;2023-03-31T15:14:32;5.85;;;1.60;;
72645;SDS011;60687;53.876;10.674;2023-03-31T15:24:39;4.77;;;1.47;;
72645;SDS011;60687;53.876;10.674;2023-03-31T15:34:43;6.57;;;1.67;;
72645;SDS011;60687;53.876;10.674;2023-03-31T15:44:52;4.63;;;1.70;;
72645;SDS011;60687;53.876;10.674;2023-03-31T15:54:57;5.07;;;1.52;;
72645;SDS011;60687;53.876;10.674;2023-03-31T16:05:03;6.83;;;2.07;;
72645;SDS011;60687;53.876;10.674;2023-03-31T16:15:08;5.63;;;1.73;;
72645;SDS011;60687;53.876;10.674;2023-03-31T16:25:17;5.80;;;1.92;;
72645;SDS011;60687;53.876;10.674;2023-03-31T16:35:22;7.57;;;2.03;;
72645;SDS011;60687;53.876;10.674;2023-03-31T16:45:25;5.73;;;1.90;;
72645;SDS011;60687;53.876;10.674;2023-03-31T16:55:29;5.75;;;1.88;;
72645;SDS011;60687;53.876;10.674;2023-03-31T17:05:37;5.00;;;1.77;;
72645;SDS011;60687;53.876;10.674;2023-03-31T17:15:40;6.30;;;2.00;;
72645;SDS011;60687;53.876;10.674;2023-03-31T17:25:46;7.32;;;3.05;;
72645;SDS011;60687;53.876;10.674;2023-03-31T17:35:54;6.82;;;2.22;;
72645;SDS011;60687;53.876;10.674;2023-03-31T17:46:02;7.23;;;2.67;;
72645;SDS011;60687;53.876;10.674;2023-03-31T17:56:11;8.37;;;2.40;;
72645;SDS011;60687;53.876;10.674;2023-03-31T18:06:15;7.47;;;2.97;;
72645;SDS011;60687;53.876;10.674;2023-03-31T18:16:18;7.17;;;3.00;;
72645;SDS011;60687;53.876;10.674;2023-03-31T18:26:23;7.03;;;2.67;;
72645;SDS011;60687;53.876;10.674;2023-03-31T18:36:28;9.52;;;2.88;;
72645;SDS011;60687;53.876;10.674;2023-03-31T18:46:32;7.00;;;2.70;;
72645;SDS011;60687;53.876;10.674;2023-03-31T18:56:35;7.53;;;3.13;;
72645;SDS011;60687;53.876;10.674;2023-03-31T19:06:39;8.02;;;2.63;;
72645;SDS011;60687;53.876;10.674;2023-03-31T19:16:44;6.78;;;3.00;;
72645;SDS011;60687;53.876;10.674;2023-03-31T19:26:51;7.63;;;2.27;;
72645;SDS011;60687;53.876;10.674;2023-03-31T19:36:55;6.20;;;2.60;;
72645;SDS011;60687;53.876;10.674;2023-03-31T19:46:59;6.70;;;2.75;;
72645;SDS011;60687;53.876;10.674;2023-03-31T19:57:02;7.47;;;2.67;;
72645;SDS011;60687;53.876;10.674;2023-03-31T20:07:06;6.37;;;2.40;;
72645;SDS011;60687;53.876;10.674;2023-03-31T20:17:09;6.93;;;2.50;;
72645;SDS011;60687;53.876;10.674;2023-03-31T20:27:17;6.03;;;2.20;;
72645;SDS011;60687;53.876;10.674;2023-03-31T20:37:22;6.27;;;2.33;;
72645;SDS011;60687;53.876;10.674;2023-03-31T20:47:29;8.07;;;3.30;;
72645;SDS011;60687;53.876;10.674;2023-03-31T20:57:36;7.28;;;2.80;;
72645;SDS011;60687;53.876;10.674;2023-03-31T21:07:40;7.57;;;2.70;;
72645;SDS011;60687;53.876;10.674;2023-03-31T21:17:43;7.80;;;2.60;;
72645;SDS011;60687;53.876;10.674;2023-03-31T21:27:47;6.22;;;2.60;;
72645;SDS011;60687;53.876;10.674;2023-03-31T21:37:52;9.60;;;4.17;;
72645;SDS011;60687;53.876;10.674;2023-03-31T21:47:56;7.10;;;2.70;;
72645;SDS011;60687;53.876;10.674;2023-03-31T21:57:59;7.25;;;2.63;;
72645;SDS011;60687;53.876;10.674;2023-03-31T22:08:04;8.40;;;3.77;;
72645;SDS011;60687;53.876;10.674;2023-03-31T22:18:12;7.70;;;3.20;;
72645;SDS011;60687;53.876;10.674;2023-03-31T22:28:21;8.35;;;3.35;;
72645;SDS011;60687;53.876;10.674;2023-03-31T22:38:26;6.80;;;2.83;;
72645;SDS011;60687;53.876;10.674;2023-03-31T22:48:31;7.20;;;2.87;;
72645;SDS011;60687;53.876;10.674;2023-03-31T22:58:40;7.63;;;3.20;;
72645;SDS011;60687;53.876;10.674;2023-03-31T23:08:44;8.50;;;3.35;;
72645;SDS011;60687;53.876;10.674;2023-03-31T23:18:48;7.93;;;3.67;;
72645;SDS011;60687;53.876;10.674;2023-03-31T23:28:54;8.37;;;3.67;;
72645;SDS011;60687;53.876;10.674;2023-03-31T23:38:59;11.48;;;4.63;;
72645;SDS011;60687;53.876;10.674;2023-03-31T23:49:07;10.73;;;4.30;;
72645;SDS011;60687;53.876;10.674;2023-03-31T23:59:10;11.43;;;5.00;;
